Time;durP1;ratioP1;P1;durP2;ratioP2;P2;SDS_P1;SDS_P2;PMS_P1;PMS_P2;Temp;Humidity;BMP_temperature;BMP_pressure;BME280_temperature;BME280_humidity;BME280_pressure;Samples;Min_cycle;Max_cycle;Signal;HPM_P1;HPM_P2
2022/04/12 00:01:14;;;;;;;6.85;3.53;;;;;;;6.78;50.06;100210.16;5048496;28;20512;-37
2022/04/12 00:03:39;;;;;;;6.85;3.30;;;;;;;6.83;50.00;100206.97;5050169;28;20095;-36
2022/04/12 00:06:05;;;;;;;6.47;3.15;;;;;;;6.80;50.84;100204.69;5050152;28;20382;-36
2022/04/12 00:08:30;;;;;;;4.75;3.33;;;;;;;6.92;49.92;100197.22;5049459;28;20045;-37
2022/04/12 00:10:58;;;;;;;6.38;3.45;;;;;;;6.85;49.98;100197.06;5049902;28;20530;-37
2022/04/12 00:13:24;;;;;;;4.97;3.47;;;;;;;6.84;49.68;100195.41;5054067;28;20021;-37
2022/04/12 00:15:49;;;;;;;3.63;3.13;;;;;;;6.49;50.18;100193.97;5053638;28;20027;-37
2022/04/12 00:21:00;;;;;;;4.30;3.00;;;;;;;6.78;49.34;100194.28;5053868;28;20041;-37
2022/04/12 00:23:26;;;;;;;4.88;3.00;;;;;;;6.59;50.14;100191.97;5053996;28;20381;-38
2022/04/12 00:25:53;;;;;;;4.65;3.08;;;;;;;6.57;50.33;100193.97;5053941;28;20082;-37
2022/04/12 00:28:19;;;;;;;5.32;3.22;;;;;;;6.77;49.91;100195.25;5053469;28;20406;-37
2022/04/12 00:30:44;;;;;;;5.55;3.20;;;;;;;6.62;50.24;100192.44;5053243;28;20025;-37
2022/04/12 00:33:10;;;;;;;5.10;3.10;;;;;;;6.71;49.32;100187.19;5053928;28;20040;-36
2022/04/12 00:35:36;;;;;;;5.18;2.90;;;;;;;6.57;50.71;100186.84;5053263;28;20433;-36
2022/04/12 00:38:08;;;;;;;5.18;2.90;;;;;;;6.51;50.36;100186.69;5053433;28;20027;-37
2022/04/12 00:40:39;;;;;;;4.97;2.90;;;;;;;6.57;50.83;100181.56;5053565;28;20040;-36
2022/04/12 00:43:04;;;;;;;3.80;2.67;;;;;;;6.56;50.16;100179.91;5053261;28;20508;-37
2022/04/12 00:45:30;;;;;;;5.30;3.13;;;;;;;6.53;49.81;100187.34;5053947;28;20052;-38
2022/04/12 00:47:55;;;;;;;4.47;2.97;;;;;;;6.44;50.31;100179.41;5053425;28;20445;-36
2022/04/12 00:50:21;;;;;;;5.60;2.80;;;;;;;6.45;50.66;100186.38;5053231;28;20016;-37
2022/04/12 00:52:50;;;;;;;6.82;2.90;;;;;;;6.52;50.28;100189.16;5052941;28;20029;-37
2022/04/12 00:55:16;;;;;;;4.93;3.00;;;;;;;6.42;50.30;100181.41;5053040;28;20017;-37
2022/04/12 00:57:42;;;;;;;4.47;2.70;;;;;;;6.25;50.21;100188.50;5053009;28;20021;-37
2022/04/12 01:00:10;;;;;;;4.68;3.00;;;;;;;6.42;50.33;100189.34;5053153;28;20476;-37
2022/04/12 01:02:36;;;;;;;5.70;2.90;;;;;;;6.55;50.87;100188.00;5052914;28;20128;-37
2022/04/12 01:05:03;;;;;;;3.72;2.80;;;;;;;6.58;50.31;100183.22;5053446;28;20086;-37
2022/04/12 01:07:29;;;;;;;5.75;2.80;;;;;;;6.63;50.47;100185.38;5053171;28;20076;-37
2022/04/12 01:09:56;;;;;;;5.85;2.90;;;;;;;6.63;49.55;100180.06;5053632;28;20021;-37
2022/04/12 01:12:21;;;;;;;5.00;3.20;;;;;;;6.47;49.56;100170.31;5053383;28;20485;-37
2022/04/12 01:14:48;;;;;;;4.82;2.75;;;;;;;6.54;51.54;100179.25;5053456;28;20100;-37
2022/04/12 01:17:15;;;;;;;4.72;2.90;;;;;;;6.45;49.92;100173.16;5053577;28;20151;-37
2022/04/12 01:19:41;;;;;;;5.18;2.80;;;;;;;6.46;50.05;100177.44;5053537;28;20099;-38
2022/04/12 01:22:11;;;;;;;8.25;3.22;;;;;;;6.59;50.23;100171.66;5053515;28;20113;-37
2022/04/12 01:24:37;;;;;;;4.47;3.15;;;;;;;6.16;50.65;100172.81;5052096;28;21644;-37
2022/04/12 01:27:03;;;;;;;5.97;3.33;;;;;;;6.29;50.39;100188.19;5053081;28;20028;-37
2022/04/12 01:29:34;;;;;;;5.32;2.92;;;;;;;6.37;51.17;100182.91;5053207;28;20549;-36
2022/04/12 01:32:00;;;;;;;5.53;3.08;;;;;;;6.39;50.35;100184.38;5053278;28;20024;-38
2022/04/12 01:34:27;;;;;;;5.05;2.95;;;;;;;6.03;50.91;100179.38;5052641;28;20028;-36
2022/04/12 01:36:52;;;;;;;3.92;2.90;;;;;;;6.14;50.91;100178.25;5052918;28;20037;-36
2022/04/12 01:39:18;;;;;;;4.25;3.20;;;;;;;6.39;50.20;100180.91;5053158;28;20051;-36
2022/04/12 01:41:43;;;;;;;5.60;3.00;;;;;;;6.36;50.58;100178.59;5053114;28;20032;-37
2022/04/12 01:44:09;;;;;;;3.55;2.80;;;;;;;6.52;50.08;100181.22;5052698;28;20123;-36
2022/04/12 01:46:34;;;;;;;4.22;2.67;;;;;;;6.47;50.13;100175.59;5052563;28;20025;-36
2022/04/12 01:49:00;;;;;;;5.28;3.20;;;;;;;6.36;51.25;100190.00;5052566;28;20259;-36
2022/04/12 01:51:25;;;;;;;4.45;2.97;;;;;;;6.29;50.34;100183.72;5052631;28;20029;-37
2022/04/12 01:53:50;;;;;;;5.07;3.17;;;;;;;6.32;51.13;100190.47;5052897;28;20095;-37
2022/04/12 01:56:16;;;;;;;5.35;3.30;;;;;;;6.39;50.44;100186.19;5052380;28;20449;-37
2022/04/12 01:58:42;;;;;;;5.30;3.08;;;;;;;6.30;51.51;100197.75;5052860;28;20029;-37
2022/04/12 02:01:08;;;;;;;5.80;2.90;;;;;;;6.07;51.86;100193.09;5053101;28;20104;-36
2022/04/12 02:03:34;;;;;;;5.68;3.00;;;;;;;6.31;50.73;100189.66;5052986;28;20036;-36
2022/04/12 02:05:59;;;;;;;4.57;2.90;;;;;;;6.28;51.13;100189.97;5052494;28;20025;-37
2022/04/12 02:08:25;;;;;;;6.00;3.30;;;;;;;6.40;51.40;100191.31;5052264;28;20132;-37
2022/04/12 02:10:50;;;;;;;5.10;3.10;;;;;;;6.33;51.05;100194.78;5052210;28;20098;-36
2022/04/12 02:13:18;;;;;;;6.03;3.20;;;;;;;6.26;51.63;100184.88;5052456;28;20028;-36
2022/04/12 02:15:44;;;;;;;7.57;3.58;;;;;;;6.16;53.71;100186.84;5052476;28;20036;-36
2022/04/12 02:18:09;;;;;;;7.38;3.80;;;;;;;6.26;52.18;100194.59;5052200;28;20025;-37
2022/04/12 02:20:35;;;;;;;6.38;3.47;;;;;;;6.34;51.84;100191.13;5052348;28;20143;-38
2022/04/12 02:23:00;;;;;;;5.80;3.55;;;;;;;6.37;51.58;100191.63;5052345;28;20032;-37
2022/04/12 02:25:26;;;;;;;7.50;3.63;;;;;;;6.41;51.48;100184.22;5051979;28;20021;-37
2022/04/12 02:27:51;;;;;;;7.93;3.97;;;;;;;6.51;51.49;100186.69;5052061;28;20032;-37
2022/04/12 02:30:17;;;;;;;6.93;4.03;;;;;;;6.33;50.63;100192.16;5052230;28;20732;-37
2022/04/12 02:32:43;;;;;;;10.65;4.10;;;;;;;6.46;50.96;100187.19;5052226;28;20029;-37
2022/04/12 02:35:09;;;;;;;5.47;3.78;;;;;;;6.25;51.50;100185.88;5049556;28;20029;-36
2022/04/12 02:37:35;;;;;;;8.48;4.82;;;;;;;6.06;51.23;100178.25;5051847;28;20021;-36
2022/04/12 02:40:02;;;;;;;8.25;4.40;;;;;;;5.93;52.02;100185.78;5051750;28;20460;-37
2022/04/12 02:42:27;;;;;;;6.72;4.38;;;;;;;5.88;51.87;100186.25;5051933;28;20212;-37
2022/04/12 02:44:53;;;;;;;7.70;4.28;;;;;;;6.09;51.42;100192.94;5051695;28;20453;-37
2022/04/12 02:47:18;;;;;;;7.43;4.55;;;;;;;5.88;51.98;100195.03;5051779;28;20025;-37
2022/04/12 02:49:44;;;;;;;7.30;4.60;;;;;;;5.98;52.04;100191.47;5051483;28;20071;-37
2022/04/12 02:52:09;;;;;;;9.85;4.65;;;;;;;6.15;50.95;100192.28;5051608;28;20064;-36
2022/04/12 02:54:35;;;;;;;8.75;4.38;;;;;;;5.94;51.49;100193.56;5051551;28;20035;-37
2022/04/12 02:57:01;;;;;;;6.03;4.22;;;;;;;6.07;53.28;100203.66;5051718;28;20040;-36
2022/04/12 02:59:26;;;;;;;8.52;4.35;;;;;;;6.02;51.82;100200.72;5051349;28;20142;-36
2022/04/12 03:01:52;;;;;;;9.60;4.05;;;;;;;5.92;51.41;100200.84;5050793;28;20033;-36
2022/04/12 03:04:18;;;;;;;7.10;4.00;;;;;;;5.90;51.62;100197.50;5050826;28;20029;-37
2022/04/12 03:06:43;;;;;;;6.78;4.18;;;;;;;6.14;51.76;100202.03;5051170;28;20382;-37
2022/04/12 03:09:09;;;;;;;7.25;4.18;;;;;;;5.86;51.81;100197.03;5050779;28;20064;-37
2022/04/12 03:11:35;;;;;;;6.80;3.97;;;;;;;5.90;51.55;100194.03;5051134;28;20021;-37
2022/04/12 03:14:01;;;;;;;5.18;3.58;;;;;;;5.65;51.96;100197.47;5051292;28;20108;-37
2022/04/12 03:16:27;;;;;;;8.65;3.55;;;;;;;5.80;51.94;100196.81;5050792;28;20175;-37
2022/04/12 03:18:52;;;;;;;5.22;3.53;;;;;;;5.93;51.97;100196.38;5051243;28;20024;-37
2022/04/12 03:21:17;;;;;;;15.13;9.00;;;;;;;6.04;51.89;100204.00;5050776;28;20021;-37
2022/04/12 03:23:43;;;;;;;12.38;6.78;;;;;;;5.92;52.36;100199.97;5050998;28;20028;-37
2022/04/12 03:26:08;;;;;;;13.45;7.30;;;;;;;6.07;51.46;100198.38;5050864;28;20021;-37
2022/04/12 03:28:34;;;;;;;18.95;9.65;;;;;;;5.91;52.93;100206.28;5050820;28;20017;-37
2022/04/12 03:30:59;;;;;;;6.05;3.65;;;;;;;5.57;52.26;100191.31;5050402;28;20423;-37
2022/04/12 03:33:25;;;;;;;7.32;3.67;;;;;;;5.87;51.28;100203.94;5050614;28;20028;-37
2022/04/12 03:35:50;;;;;;;5.97;3.30;;;;;;;5.83;51.78;100197.34;5050601;28;20197;-37
2022/04/12 03:38:16;;;;;;;5.38;3.38;;;;;;;5.91;51.36;100201.00;5050956;28;20135;-36
2022/04/12 03:40:46;;;;;;;8.68;3.50;;;;;;;5.73;51.16;100199.28;5050629;28;20075;-37
2022/04/12 03:43:11;;;;;;;5.25;3.40;;;;;;;5.82;51.76;100206.22;5050153;28;20095;-36
2022/04/12 03:45:37;;;;;;;6.32;3.42;;;;;;;5.72;51.83;100184.41;5050743;28;20033;-36
2022/04/12 03:48:03;;;;;;;7.57;3.78;;;;;;;5.83;51.63;100205.25;5050513;28;20017;-37
2022/04/12 03:50:28;;;;;;;10.02;3.60;;;;;;;5.69;52.60;100208.50;5050782;28;20028;-37
2022/04/12 03:52:54;;;;;;;5.35;3.35;;;;;;;5.76;51.67;100212.16;5050222;28;20032;-37
2022/04/12 03:55:30;;;;;;;7.20;3.70;;;;;;;6.10;50.99;100219.22;5050474;28;20029;-37
2022/04/12 03:58:01;;;;;;;5.68;3.58;;;;;;;6.16;50.86;100199.22;5050651;28;20103;-36
2022/04/12 04:00:28;;;;;;;6.72;3.90;;;;;;;6.39;50.14;100213.44;5050408;28;20106;-36
2022/04/12 04:02:54;;;;;;;5.53;3.15;;;;;;;6.42;50.72;100212.31;5050374;28;20139;-37
2022/04/12 04:05:20;;;;;;;4.80;3.17;;;;;;;6.61;49.07;100211.97;5050361;28;20024;-37
2022/04/12 04:07:46;;;;;;;8.32;4.35;;;;;;;7.16;48.56;100206.91;5050244;28;20047;-37
2022/04/12 04:10:12;;;;;;;6.78;3.70;;;;;;;7.25;47.54;100205.88;5050139;28;20061;-36
2022/04/12 04:12:38;;;;;;;4.65;3.20;;;;;;;7.32;46.75;100209.50;5050291;28;20029;-37
2022/04/12 04:15:05;;;;;;;6.60;3.47;;;;;;;7.52;47.73;100209.94;5050053;28;20082;-36
2022/04/12 04:17:32;;;;;;;9.20;3.70;;;;;;;7.23;47.68;100210.53;5050283;28;20047;-36
2022/04/12 04:19:57;;;;;;;4.97;3.40;;;;;;;7.69;46.77;100221.31;5050335;28;20025;-36
2022/04/12 04:22:23;;;;;;;10.77;4.03;;;;;;;7.91;46.51;100222.34;5050325;28;20058;-37
2022/04/12 04:24:48;;;;;;;8.18;3.50;;;;;;;8.02;46.09;100215.81;5049785;28;20021;-37
2022/04/12 04:27:16;;;;;;;5.22;3.70;;;;;;;8.23;45.64;100218.66;5049780;28;20017;-38
2022/04/12 04:29:42;;;;;;;9.20;4.00;;;;;;;8.56;44.59;100223.72;5050060;28;20537;-36
2022/04/12 04:32:08;;;;;;;10.82;4.40;;;;;;;8.92;43.90;100222.25;5049963;28;20127;-38
2022/04/12 04:34:33;;;;;;;9.18;3.92;;;;;;;9.02;44.53;100229.97;5049693;28;20024;-37
2022/04/12 04:36:59;;;;;;;6.88;4.68;;;;;;;8.82;43.57;100222.53;5040471;28;20030;-37
2022/04/12 04:39:24;;;;;;;8.43;4.95;;;;;;;9.10;43.01;100227.22;5041115;28;20060;-38
2022/04/12 04:41:49;;;;;;;9.15;4.53;;;;;;;9.83;41.54;100233.50;5030611;28;20037;-40
2022/04/12 04:44:16;;;;;;;5.72;3.53;;;;;;;9.93;40.99;100219.91;5044034;28;20021;-42
2022/04/12 04:46:42;;;;;;;20.88;12.02;;;;;;;9.61;41.63;100221.16;5049791;28;20025;-37
2022/04/12 04:49:07;;;;;;;6.22;3.47;;;;;;;9.82;40.58;100226.53;5050021;28;20025;-38
2022/04/12 04:51:35;;;;;;;6.57;3.78;;;;;;;9.91;40.73;100235.22;5050408;28;20029;-39
2022/04/12 04:54:01;;;;;;;5.07;3.22;;;;;;;9.97;40.22;100235.28;5049931;28;20020;-37
2022/04/12 04:56:27;;;;;;;4.80;3.00;;;;;;;10.53;38.70;100232.00;5049582;28;20047;-39
2022/04/12 04:58:53;;;;;;;5.63;3.25;;;;;;;10.52;38.71;100235.69;5051056;28;20040;-37
2022/04/12 05:01:20;;;;;;;17.20;10.65;;;;;;;10.33;38.98;100237.13;5053560;28;20029;-37
2022/04/12 05:03:46;;;;;;;6.13;3.47;;;;;;;10.23;39.37;100231.28;5052473;28;20029;-36
2022/04/12 05:06:11;;;;;;;7.18;3.63;;;;;;;10.72;38.66;100241.19;5051803;28;20122;-36
2022/04/12 05:08:37;;;;;;;7.40;3.78;;;;;;;11.58;38.00;100247.28;5051836;28;20081;-37
2022/04/12 05:11:02;;;;;;;6.47;3.83;;;;;;;11.40;37.49;100245.13;5051866;28;20100;-37
2022/04/12 05:13:28;;;;;;;8.48;4.43;;;;;;;11.71;36.99;100250.00;5051633;28;20180;-37
2022/04/12 05:15:53;;;;;;;5.25;3.15;;;;;;;11.64;37.42;100249.16;5051995;28;20013;-37
2022/04/12 05:18:18;;;;;;;4.82;3.13;;;;;;;11.31;37.41;100250.63;5045268;28;20025;-36
2022/04/12 05:20:44;;;;;;;5.90;3.13;;;;;;;11.84;36.98;100246.56;5031895;28;20029;-36
2022/04/12 05:23:09;;;;;;;7.97;3.15;;;;;;;13.05;37.36;100254.56;5034185;28;20096;-37
2022/04/12 05:25:35;;;;;;;6.30;3.33;;;;;;;13.78;36.17;100244.75;5043656;28;20440;-37
2022/04/12 05:28:00;;;;;;;7.22;3.55;;;;;;;14.37;34.28;100258.84;5037525;28;20433;-37
2022/04/12 05:30:26;;;;;;;5.68;3.85;;;;;;;15.17;32.42;100260.91;5032727;28;20444;-39
2022/04/12 05:32:51;;;;;;;8.45;3.30;;;;;;;16.00;33.76;100256.94;5033138;28;20129;-38
2022/04/12 05:35:17;;;;;;;7.03;3.60;;;;;;;16.94;32.29;100259.88;5032825;28;20451;-37
2022/04/12 05:37:52;;;;;;;8.20;3.42;;;;;;;17.47;30.34;100259.97;5032692;28;20513;-38
2022/04/12 05:40:18;;;;;;;5.35;3.80;;;;;;;17.04;28.73;100259.31;5032925;28;20021;-38
2022/04/12 05:42:44;;;;;;;8.93;3.88;;;;;;;17.03;28.50;100256.84;5034041;28;20029;-39
2022/04/12 05:45:11;;;;;;;6.40;3.22;;;;;;;16.78;29.35;100249.78;5051810;28;20404;-39
2022/04/12 05:47:51;;;;;;;6.50;3.10;;;;;;;17.30;31.25;100249.13;5051303;28;20021;-37
2022/04/12 05:50:18;;;;;;;7.55;3.33;;;;;;;17.03;29.53;100241.53;5050391;28;20025;-37
2022/04/12 05:52:43;;;;;;;7.78;3.10;;;;;;;17.58;28.48;100243.81;5050614;28;20031;-37
2022/04/12 05:55:11;;;;;;;5.72;3.15;;;;;;;17.67;27.76;100228.13;5050530;28;20104;-38
2022/04/12 05:57:55;;;;;;;3.80;2.78;;;;;;;17.79;28.42;100250.41;5050228;28;20126;-38
2022/04/12 06:00:23;;;;;;;7.03;2.90;;;;;;;18.71;26.72;100243.19;5051293;28;20162;-38
2022/04/12 06:02:49;;;;;;;9.35;2.97;;;;;;;18.81;25.74;100245.31;5052373;28;20021;-37
2022/04/12 06:05:16;;;;;;;4.43;2.60;;;;;;;17.81;27.18;100236.72;5052513;28;20028;-37
2022/04/12 06:07:42;;;;;;;4.13;2.95;;;;;;;17.51;28.92;100247.69;5051861;28;20068;-37
2022/04/12 06:10:10;;;;;;;4.50;2.92;;;;;;;17.45;27.43;100248.63;5051445;28;20449;-38
2022/04/12 06:12:36;;;;;;;5.57;2.83;;;;;;;18.05;26.53;100232.13;5051891;28;20029;-38
2022/04/12 06:15:01;;;;;;;5.38;2.85;;;;;;;18.89;25.97;100252.97;5051602;28;20056;-38
2022/04/12 06:17:31;;;;;;;5.30;2.75;;;;;;;19.00;26.24;100253.94;5051763;28;20055;-38
2022/04/12 06:20:02;;;;;;;7.00;2.78;;;;;;;18.96;25.54;100255.47;5052154;28;20028;-38
2022/04/12 06:22:28;;;;;;;4.43;2.72;;;;;;;19.34;25.20;100252.00;5051570;28;20047;-38
2022/04/12 06:24:53;;;;;;;5.35;2.85;;;;;;;19.03;26.88;100256.13;5051528;28;20405;-36
2022/04/12 06:27:31;;;;;;;6.32;2.90;;;;;;;20.00;25.23;100261.19;5051706;28;20028;-37
2022/04/12 06:29:57;;;;;;;3.45;2.50;;;;;;;20.58;23.61;100256.91;5051829;28;20112;-37
2022/04/12 06:32:24;;;;;;;7.28;2.97;;;;;;;19.99;25.01;100264.97;5051679;28;20044;-37
2022/04/12 06:34:49;;;;;;;7.00;2.80;;;;;;;18.82;26.14;100259.59;5051188;28;20461;-38
2022/04/12 06:37:14;;;;;;;4.82;2.67;;;;;;;19.24;25.20;100251.84;5051436;28;20035;-39
2022/04/12 06:39:40;;;;;;;4.88;2.90;;;;;;;20.09;24.17;100257.00;5051230;28;20093;-38
2022/04/12 06:42:06;;;;;;;5.55;2.70;;;;;;;19.67;24.42;100258.38;5050287;28;20033;-37
2022/04/12 06:44:32;;;;;;;7.72;3.13;;;;;;;19.42;24.11;100253.47;5050366;28;20075;-38
2022/04/12 06:46:58;;;;;;;7.45;2.90;;;;;;;19.08;24.38;100248.13;5050340;28;20401;-37
2022/04/12 06:49:23;;;;;;;9.50;2.90;;;;;;;19.00;24.59;100242.31;5051251;28;20028;-37
2022/04/12 06:51:49;;;;;;;7.20;3.13;;;;;;;19.49;24.94;100254.06;5051513;28;20029;-37
2022/04/12 06:54:14;;;;;;;9.45;2.95;;;;;;;20.33;24.80;100253.97;5051073;28;20035;-37
2022/04/12 06:56:39;;;;;;;4.63;2.60;;;;;;;21.22;23.36;100258.75;5051433;28;20029;-37
2022/04/12 06:59:05;;;;;;;3.20;2.40;;;;;;;20.27;23.31;100264.72;5051101;28;20025;-37
2022/04/12 07:01:30;;;;;;;7.72;2.60;;;;;;;19.96;23.55;100270.88;5050861;28;20029;-37
2022/04/12 07:03:56;;;;;;;5.95;2.65;;;;;;;19.79;24.38;100270.97;5050941;28;20025;-37
2022/04/12 07:06:21;;;;;;;6.00;2.38;;;;;;;19.64;23.65;100275.06;5050512;28;20436;-37
2022/04/12 07:08:47;;;;;;;5.18;2.63;;;;;;;20.23;22.99;100266.31;5050699;28;20041;-37
2022/04/12 07:11:12;;;;;;;3.70;2.35;;;;;;;19.56;22.80;100280.91;5050719;28;20029;-38
2022/04/12 07:13:37;;;;;;;4.07;2.40;;;;;;;19.31;23.30;100271.38;5049576;28;20082;-37
2022/04/12 07:16:03;;;;;;;4.22;2.63;;;;;;;19.81;23.43;100272.31;5050373;28;20028;-38
2022/04/12 07:18:29;;;;;;;5.45;2.55;;;;;;;20.38;22.67;100259.44;5050761;28;20021;-38
2022/04/12 07:20:55;;;;;;;6.50;2.60;;;;;;;20.55;22.24;100265.53;5050117;28;20029;-38
2022/04/12 07:23:20;;;;;;;4.20;2.10;;;;;;;20.33;21.02;100276.41;5050679;28;20033;-37
2022/04/12 07:25:45;;;;;;;5.40;2.20;;;;;;;19.73;22.86;100278.19;5050318;28;20021;-37
2022/04/12 07:28:11;;;;;;;4.70;2.10;;;;;;;20.72;22.13;100286.25;5050524;28;20031;-37
2022/04/12 07:30:36;;;;;;;4.53;1.98;;;;;;;19.78;21.67;100277.41;5050568;28;20152;-37
2022/04/12 07:33:02;;;;;;;3.40;2.50;;;;;;;19.63;22.46;100286.09;5050281;28;20400;-37
2022/04/12 07:35:27;;;;;;;7.03;2.40;;;;;;;20.01;22.96;100273.63;5050136;28;20025;-37
2022/04/12 07:37:53;;;;;;;9.35;2.60;;;;;;;19.90;22.21;100283.50;5049985;28;20048;-39
2022/04/12 07:40:19;;;;;;;3.40;2.10;;;;;;;19.68;22.24;100284.28;5050514;28;20115;-38
2022/04/12 07:42:44;;;;;;;4.75;2.20;;;;;;;19.40;22.97;100274.50;5050357;28;20112;-37
2022/04/12 07:45:10;;;;;;;3.08;2.20;;;;;;;18.70;22.75;100268.53;5050267;28;20031;-37
2022/04/12 07:47:35;;;;;;;4.57;2.50;;;;;;;18.50;23.67;100268.19;5049922;28;20017;-37
2022/04/12 07:50:02;;;;;;;4.13;2.30;;;;;;;18.82;23.03;100265.78;5050372;28;20532;-38
2022/04/12 07:52:28;;;;;;;4.07;2.47;;;;;;;19.22;22.55;100259.38;5050733;28;20029;-37
2022/04/12 07:54:53;;;;;;;3.85;2.50;;;;;;;19.59;22.99;100272.31;5050522;28;20420;-38
2022/04/12 07:57:19;;;;;;;3.20;2.38;;;;;;;19.98;22.72;100264.16;5050619;28;20051;-38
2022/04/12 07:59:44;;;;;;;6.55;2.70;;;;;;;20.54;22.93;100257.66;5049898;28;20013;-38
2022/04/12 08:02:09;;;;;;;7.63;2.70;;;;;;;20.30;22.18;100264.22;5050196;28;20055;-37
2022/04/12 08:04:35;;;;;;;6.43;2.38;;;;;;;20.30;22.29;100241.78;5049772;28;20017;-37
2022/04/12 08:07:00;;;;;;;3.55;2.40;;;;;;;20.83;21.29;100250.91;5050610;28;20029;-37
2022/04/12 08:09:26;;;;;;;3.88;2.28;;;;;;;20.00;21.93;100248.50;5049488;28;20499;-38
2022/04/12 08:11:51;;;;;;;5.68;2.50;;;;;;;18.90;23.07;100257.28;5050161;28;20453;-38
2022/04/12 08:14:17;;;;;;;3.45;2.25;;;;;;;19.17;22.12;100255.78;5049901;28;20523;-37
2022/04/12 08:16:42;;;;;;;5.15;2.20;;;;;;;19.07;22.31;100251.06;5049657;28;20016;-37
2022/04/12 08:19:07;;;;;;;7.22;2.40;;;;;;;19.22;22.57;100245.88;5049721;28;20047;-37
2022/04/12 08:21:35;;;;;;;3.30;1.92;;;;;;;19.28;22.12;100244.88;5049769;28;20087;-38
2022/04/12 08:24:01;;;;;;;4.38;2.25;;;;;;;18.90;22.42;100245.69;5049686;28;20036;-38
2022/04/12 08:26:26;;;;;;;3.83;2.20;;;;;;;18.78;22.68;100234.16;5049583;28;20397;-38
2022/04/12 08:28:52;;;;;;;4.85;2.38;;;;;;;19.08;22.41;100237.34;5049745;28;20104;-37
2022/04/12 08:31:17;;;;;;;3.15;2.42;;;;;;;18.53;23.33;100232.69;5049700;28;20505;-38
2022/04/12 08:33:43;;;;;;;4.13;2.70;;;;;;;18.89;23.00;100231.41;5051390;28;20025;-38
2022/04/12 08:36:08;;;;;;;4.38;3.03;;;;;;;19.72;22.28;100233.31;5053986;28;20025;-37
2022/04/12 08:38:34;;;;;;;3.30;2.53;;;;;;;19.52;22.51;100233.88;5053300;28;20515;-40
2022/04/12 08:41:01;;;;;;;4.00;2.70;;;;;;;19.97;22.63;100234.69;5053499;28;20049;-38
2022/04/12 08:43:29;;;;;;;3.03;2.40;;;;;;;20.68;22.04;100227.28;5053185;28;20095;-37
2022/04/12 08:45:55;;;;;;;4.57;2.75;;;;;;;21.13;21.63;100232.44;5053702;28;20032;-37
2022/04/12 08:48:21;;;;;;;4.60;2.60;;;;;;;21.41;21.68;100228.53;5053185;28;20021;-37
2022/04/12 08:50:48;;;;;;;5.78;2.60;;;;;;;21.21;21.26;100218.41;5053036;28;20021;-37
2022/04/12 08:53:16;;;;;;;5.25;2.58;;;;;;;21.31;21.36;100225.78;5053378;28;20024;-38
2022/04/12 08:55:41;;;;;;;4.47;2.70;;;;;;;20.38;22.28;100202.69;5053238;28;20025;-38
2022/04/12 08:58:07;;;;;;;6.85;2.60;;;;;;;20.27;22.48;100204.47;5053156;28;20432;-39
2022/04/12 09:00:32;;;;;;;4.15;2.42;;;;;;;20.64;21.70;100206.44;5053504;28;20020;-38
2022/04/12 09:02:59;;;;;;;10.55;2.78;;;;;;;21.22;21.69;100206.53;5052784;28;20463;-36
2022/04/12 09:05:26;;;;;;;3.88;2.63;;;;;;;21.35;21.99;100203.34;5053228;28;20033;-38
2022/04/12 09:07:51;;;;;;;6.78;2.90;;;;;;;20.65;22.59;100202.66;5053254;28;20128;-38
2022/04/12 09:10:19;;;;;;;4.43;2.60;;;;;;;20.44;22.30;100196.22;5053259;28;20186;-37
2022/04/12 09:12:45;;;;;;;5.25;2.90;;;;;;;20.30;23.04;100193.97;5052907;28;20021;-38
2022/04/12 09:15:12;;;;;;;3.97;2.80;;;;;;;20.61;22.15;100194.22;5052929;28;20020;-38
2022/04/12 09:17:41;;;;;;;4.22;2.83;;;;;;;21.44;22.10;100190.97;5052874;28;20504;-38
2022/04/12 09:20:13;;;;;;;4.10;2.93;;;;;;;22.66;21.02;100191.44;5052799;28;20493;-37
2022/04/12 09:22:39;;;;;;;7.10;2.60;;;;;;;22.18;20.44;100188.97;5052969;28;20409;-37
2022/04/12 09:25:07;;;;;;;4.85;2.60;;;;;;;21.85;21.37;100188.38;5052431;28;20028;-37
2022/04/12 09:27:34;;;;;;;4.38;2.70;;;;;;;22.20;21.79;100188.69;5053018;28;20079;-38
2022/04/12 09:30:02;;;;;;;4.55;2.47;;;;;;;21.53;20.89;100185.81;5052540;28;20131;-38
2022/04/12 09:32:39;;;;;;;3.60;2.30;;;;;;;20.97;21.34;100183.66;5052668;28;20060;-37
2022/04/12 09:35:05;;;;;;;5.13;2.70;;;;;;;21.15;21.13;100182.41;5052126;28;20028;-38
2022/04/12 09:37:33;;;;;;;3.88;2.38;;;;;;;21.37;21.02;100166.00;5052512;28;20025;-38
2022/04/12 09:39:58;;;;;;;3.42;2.60;;;;;;;20.93;22.21;100171.72;5052739;28;20047;-37
2022/04/12 09:42:42;;;;;;;3.17;2.40;;;;;;;21.75;21.19;100168.59;5052579;28;20423;-38
2022/04/12 09:45:11;;;;;;;3.08;2.30;;;;;;;22.12;21.09;100172.97;5031680;28;20021;-38
2022/04/12 09:47:37;;;;;;;;;;;;;;;21.99;21.43;100163.47;5033171;28;20031;-36
2022/04/12 09:50:03;;;;;;;3.92;2.40;;;;;;;21.73;20.74;100160.72;5031429;28;19992;-38
2022/04/12 09:52:29;;;;;;;4.22;2.60;;;;;;;21.14;21.94;100163.72;5032739;28;20024;-38
2022/04/12 09:54:56;;;;;;;4.15;2.50;;;;;;;21.33;22.10;100147.84;5032194;28;20021;-36
2022/04/12 09:57:22;;;;;;;3.80;2.55;;;;;;;22.16;21.36;100141.53;5031953;28;20054;-36
2022/04/12 09:59:48;;;;;;;5.13;2.58;;;;;;;21.42;21.38;100135.44;5032929;28;20069;-38
2022/04/12 10:02:15;;;;;;;5.85;2.60;;;;;;;21.91;21.51;100139.63;5032528;28;20508;-38
2022/04/12 10:04:42;;;;;;;4.65;2.30;;;;;;;20.57;21.89;100133.63;5032610;28;20134;-38
2022/04/12 10:07:10;;;;;;;4.35;2.80;;;;;;;20.49;22.52;100134.13;5032279;28;20022;-38
2022/04/12 10:09:37;;;;;;;6.60;2.38;;;;;;;21.17;21.52;100128.84;5032046;28;20125;-38
2022/04/12 10:12:05;;;;;;;7.40;2.38;;;;;;;21.54;20.21;100116.28;5032093;28;20065;-38
2022/04/12 10:14:30;;;;;;;3.25;2.15;;;;;;;21.71;20.62;100108.72;5032050;28;20059;-37
2022/04/12 10:16:57;;;;;;;8.82;2.83;;;;;;;22.21;20.23;100112.53;5031134;28;20025;-37
2022/04/12 10:19:23;;;;;;;4.03;2.38;;;;;;;21.08;20.35;100092.53;5031366;28;20497;-38
2022/04/12 10:21:48;;;;;;;4.05;2.30;;;;;;;21.48;20.41;100088.38;5031867;28;20104;-39
2022/04/12 10:24:15;;;;;;;3.30;2.10;;;;;;;21.82;20.00;100085.97;5031605;28;20508;-38
2022/04/12 10:26:44;;;;;;;3.67;2.20;;;;;;;21.35;20.21;100088.84;5051578;28;20104;-37
2022/04/12 10:29:09;;;;;;;4.00;2.35;;;;;;;20.98;21.08;100076.25;5051384;28;20031;-37
2022/04/12 10:31:35;;;;;;;3.45;2.08;;;;;;;21.63;20.75;100068.63;5051435;28;20033;-37
2022/04/12 10:34:14;;;;;;;3.40;2.08;;;;;;;22.43;20.00;100077.03;5051771;28;20049;-38
2022/04/12 10:36:55;;;;;;;4.93;2.20;;;;;;;21.99;20.16;100077.59;5051350;28;20032;-37
2022/04/12 10:39:32;;;;;;;4.15;2.50;;;;;;;21.59;20.97;100068.34;5051129;28;20083;-37
2022/04/12 10:42:04;;;;;;;3.05;2.30;;;;;;;20.56;21.96;100058.19;5051791;28;20029;-38
2022/04/12 10:44:38;;;;;;;4.93;2.22;;;;;;;19.88;22.88;100066.91;5050967;28;20029;-38
2022/04/12 10:47:04;;;;;;;3.05;2.40;;;;;;;20.20;21.69;100047.97;5051088;28;20025;-38
2022/04/12 10:49:35;;;;;;;2.80;2.28;;;;;;;20.35;21.66;100047.25;5051231;28;20024;-37
2022/04/12 10:52:00;;;;;;;5.97;2.30;;;;;;;21.28;20.66;100045.78;5051136;28;20117;-37
2022/04/12 10:54:35;;;;;;;3.50;1.98;;;;;;;21.50;20.24;100042.88;5050666;28;20465;-37
2022/04/12 10:57:16;;;;;;;4.88;2.10;;;;;;;20.86;20.54;100031.31;5050005;28;20024;-37
2022/04/12 10:59:46;;;;;;;5.30;3.13;;;;;;;21.20;20.87;100030.06;5051075;28;20110;-37
2022/04/12 11:02:12;;;;;;;3.10;2.17;;;;;;;21.02;20.50;100024.06;5050903;28;20491;-37
2022/04/12 11:04:37;;;;;;;4.20;2.20;;;;;;;20.82;20.83;100019.41;5050938;28;20051;-37
2022/04/12 11:07:06;;;;;;;3.33;2.17;;;;;;;21.32;20.48;100025.22;5051090;28;20145;-42
2022/04/12 11:09:32;;;;;;;3.88;2.28;;;;;;;22.12;19.40;100019.31;5050718;28;20053;-38
2022/04/12 11:12:01;;;;;;;4.22;2.20;;;;;;;21.36;19.66;100018.22;5051097;28;20499;-38
2022/04/12 11:14:38;;;;;;;4.10;2.20;;;;;;;19.58;21.63;100013.44;5050441;28;20481;-38
2022/04/12 11:17:14;;;;;;;2.80;2.00;;;;;;;19.45;21.69;100006.56;5050922;28;20036;-38
2022/04/12 11:19:44;;;;;;;4.70;2.50;;;;;;;20.01;21.65;100006.22;5050782;28;20032;-39
2022/04/12 11:22:11;;;;;;;3.05;1.90;;;;;;;20.70;21.42;99995.28;5050437;28;20463;-36
2022/04/12 11:24:37;;;;;;;2.97;2.05;;;;;;;20.63;21.12;99991.22;5051108;28;20029;-38
2022/04/12 11:27:10;;;;;;;4.00;1.98;;;;;;;21.15;21.14;99998.41;5050814;28;20055;-37
2022/04/12 11:29:41;;;;;;;3.63;2.10;;;;;;;21.46;20.43;99988.47;5050856;28;20112;-38